Terminal Aerodrome Forecast
Issued by NWS Cleveland, OH

Home | Current Version | Previous Version | Graphics & Text | Print | Product List | Glossary On
Versions: 1 2 3 4 5 6 7 8 9 10 11 12 13
661
FTUS41 KCLE 190538
TAFERI
TAF
KERI 190538Z 1906/2006 27010KT P6SM BKN040
     FM191600 27013KT P6SM BKN040 OVC100 PROB30 1918/1923 5SM -TSRA
      BKN040CB
     FM200200 22005KT P6SM SCT050=

USA.gov is the U.S. government's official web portal to all federal, state and local government web resources and services.